Time;durP1;ratioP1;P1;durP2;ratioP2;P2;SDS_P1;SDS_P2;PMS_P1;PMS_P2;Temp;Humidity;BMP_temperature;BMP_pressure;BME280_temperature;BME280_humidity;BME280_pressure;Samples;Min_cycle;Max_cycle;Signal;HPM_P1;HPM_P2
2023/01/25 00:00:37;;;;;;;;;;;;;;;0.47;100.00;98007.00;5044638;28;20358;-72
2023/01/25 00:03:03;;;;;;;;;;;;;;;0.46;100.00;98008.06;5042236;28;19921;-71
2023/01/25 00:05:28;;;;;;;;;;;;;;;0.48;100.00;98005.13;5042115;28;19921;-71
2023/01/25 00:07:53;;;;;;;;;;;;;;;0.56;100.00;98007.28;5026546;28;19924;-71
2023/01/25 00:10:19;;;;;;;;;;;;;;;0.50;100.00;98006.44;5037443;28;19924;-72
2023/01/25 00:12:44;;;;;;;;;;;;;;;0.47;100.00;97995.41;5044998;28;19921;-72
2023/01/25 00:15:09;;;;;;;;;;;;;;;0.45;100.00;97994.88;5037088;28;20002;-73
2023/01/25 00:17:35;;;;;;;;;;;;;;;0.44;100.00;97999.47;5044258;28;20286;-73
2023/01/25 00:20:00;;;;;;;;;;;;;;;0.45;100.00;97992.16;5025540;28;20408;-72
2023/01/25 00:22:25;;;;;;;;;;;;;;;0.42;100.00;97992.72;5039366;28;20008;-70
2023/01/25 00:24:51;;;;;;;;;;;;;;;0.40;100.00;97987.59;5042252;28;20374;-72
2023/01/25 00:27:16;;;;;;;;;;;;;;;0.40;100.00;97984.91;5038626;28;19921;-73
2023/01/25 00:29:41;;;;;;;;;;;;;;;0.44;100.00;97977.91;5042636;28;19917;-72
2023/01/25 00:32:27;;;;;;;;;;;;;;;0.47;100.00;97981.91;5039173;28;19916;-74
2023/01/25 00:34:52;;;;;;;;;;;;;;;0.48;100.00;97964.69;5043945;28;19947;-72
2023/01/25 00:37:18;;;;;;;;;;;;;;;0.51;100.00;97980.31;5038637;28;20420;-72
2023/01/25 00:39:43;;;;;;;;;;;;;;;0.51;100.00;97969.53;5041946;28;20378;-72
2023/01/25 00:42:12;;;;;;;;;;;;;;;0.51;100.00;97972.25;5038224;28;19924;-72
2023/01/25 00:44:38;;;;;;;;;;;;;;;0.53;100.00;97976.28;5043463;28;19943;-72
2023/01/25 00:47:04;;;;;;;;;;;;;;;0.52;100.00;97981.94;5040948;28;19971;-71
2023/01/25 00:49:30;;;;;;;;;;;;;;;0.49;100.00;97983.28;5043104;28;19924;-72
2023/01/25 00:51:56;;;;;;;;;;;;;;;0.52;100.00;97971.97;5043817;28;19924;-72
2023/01/25 00:54:21;;;;;;;;;;;;;;;0.52;100.00;97974.66;5038983;28;19959;-73
2023/01/25 00:56:47;;;;;;;;;;;;;;;0.50;100.00;97978.69;5026334;28;19960;-72
2023/01/25 00:59:13;;;;;;;;;;;;;;;0.47;100.00;97982.75;5021439;28;19917;-73
2023/01/25 01:01:41;;;;;;;;;;;;;;;0.47;100.00;97990.00;5028801;28;19921;-73
2023/01/25 01:04:07;;;;;;;;;;;;;;;0.47;100.00;97982.75;5057007;28;20366;-72
2023/01/25 01:06:36;;;;;;;;;;;;;;;0.51;100.00;97980.31;5036018;28;20007;-72
2023/01/25 01:09:02;;;;;;;;;;;;;;;0.50;100.00;97970.59;5034377;28;19917;-72
2023/01/25 01:11:27;;;;;;;;;;;;;;;0.46;100.00;97980.31;5018814;28;19978;-72
2023/01/25 01:13:55;;;;;;;;;;;;;;;0.43;100.00;97978.97;5023308;28;20320;-73
2023/01/25 01:16:20;;;;;;;;;;;;;;;0.46;100.00;97980.31;5018257;28;20000;-72
2023/01/25 01:18:46;;;;;;;;;;;;;;;0.48;100.00;97978.16;5022495;28;19921;-72
2023/01/25 01:21:12;;;;;;;;;;;;;;;0.45;100.00;97979.53;5018601;28;19917;-72
2023/01/25 01:23:37;;;;;;;;;;;;;;;0.42;100.00;97969.28;5021256;28;20330;-72
2023/01/25 01:26:04;;;;;;;;;;;;;;;0.43;100.00;97970.06;5053625;28;19948;-71
2023/01/25 01:28:33;;;;;;;;;;;;;;;0.41;100.00;97973.03;5019962;28;19924;-72
2023/01/25 01:31:00;;;;;;;;;;;;;;;0.44;100.00;97971.69;5023758;28;19936;-72
2023/01/25 01:33:25;;;;;;;;;;;;;;;0.44;100.00;97974.41;5019281;28;19925;-73
2023/01/25 01:35:50;;;;;;;;;;;;;;;0.43;100.00;97976.25;5022362;28;20140;-72
2023/01/25 01:38:15;;;;;;;;;;;;;;;0.42;100.00;97977.34;5018621;28;20283;-72
2023/01/25 01:40:44;;;;;;;;;;;;;;;0.44;100.00;97982.47;5022839;28;19925;-73
2023/01/25 01:43:18;;;;;;;;;;;;;;;0.45;100.00;97979.53;5032832;28;19948;-72
2023/01/25 01:45:46;;;;;;;;;;;;;;;0.47;100.00;97974.66;5023570;28;20382;-73
2023/01/25 01:48:14;;;;;;;;;;;;;;;0.44;100.00;97974.41;5019894;28;20373;-72
2023/01/25 01:50:39;;;;;;;;;;;;;;;0.47;100.00;97973.84;5054445;28;19921;-73
2023/01/25 01:53:05;;;;;;;;;;;;;;;0.47;100.00;97982.75;5016603;28;20234;-71
2023/01/25 01:55:30;;;;;;;;;;;;;;;0.49;100.00;97972.50;5037007;28;20053;-72
2023/01/25 01:57:57;;;;;;;;;;;;;;;0.54;100.00;97968.97;5022764;28;19956;-72
2023/01/25 02:00:28;;;;;;;;;;;;;;;0.45;100.00;97973.31;5017660;28;20544;-72
2023/01/25 02:02:54;;;;;;;;;;;;;;;0.56;100.00;97967.66;5021541;28;20390;-72
2023/01/25 02:05:35;;;;;;;;;;;;;;;0.47;100.00;97966.59;5017830;28;19978;-72
2023/01/25 02:08:01;;;;;;;;;;;;;;;0.38;100.00;97971.69;5029307;28;19917;-72
2023/01/25 02:10:27;;;;;;;;;;;;;;;0.41;100.00;97967.63;5033186;28;19966;-73
2023/01/25 02:12:54;;;;;;;;;;;;;;;0.32;100.00;97963.88;5037394;28;19917;-72
2023/01/25 02:15:20;;;;;;;;;;;;;;;0.28;100.00;97973.56;5027306;28;19917;-71
2023/01/25 02:17:46;;;;;;;;;;;;;;;0.25;100.00;97966.00;5024891;28;20020;-72
2023/01/25 02:20:23;;;;;;;;;;;;;;;0.23;100.00;97960.88;5017968;28;19956;-72
2023/01/25 02:22:48;;;;;;;;;;;;;;;0.25;100.00;97961.44;5022270;28;20290;-72
2023/01/25 02:25:15;;;;;;;;;;;;;;;0.27;100.00;97956.59;5017644;28;19921;-72
2023/01/25 02:27:42;;;;;;;;;;;;;;;0.24;100.00;97967.91;5021678;28;19917;-73
2023/01/25 02:30:08;;;;;;;;;;;;;;;0.27;100.00;97962.00;5017596;28;19917;-72
2023/01/25 02:32:33;;;;;;;;;;;;;;;0.25;100.00;97960.63;5022639;28;19925;-73
2023/01/25 02:34:58;;;;;;;;;;;;;;;0.23;100.00;97957.41;5054840;28;19917;-72
2023/01/25 02:37:24;;;;;;;;;;;;;;;0.23;100.00;97960.09;5017885;28;20042;-72
2023/01/25 02:39:49;;;;;;;;;;;;;;;0.21;100.00;97951.47;5022799;28;19921;-73
2023/01/25 02:42:15;;;;;;;;;;;;;;;0.22;100.00;97970.06;5016426;28;20358;-73
2023/01/25 02:44:42;;;;;;;;;;;;;;;0.21;100.00;97960.34;5022092;28;19925;-73
2023/01/25 02:47:07;;;;;;;;;;;;;;;0.21;100.00;97964.94;5015521;28;19921;-73
2023/01/25 02:49:35;;;;;;;;;;;;;;;0.23;100.00;97960.09;5021644;28;19986;-71
2023/01/25 02:52:02;;;;;;;;;;;;;;;0.19;100.00;97955.22;5021622;28;19917;-74
2023/01/25 02:54:27;;;;;;;;;;;;;;;0.19;100.00;97957.94;5041826;28;19985;-73
2023/01/25 02:56:53;;;;;;;;;;;;;;;0.21;100.00;97954.16;5045672;28;20341;-70
2023/01/25 02:59:18;;;;;;;;;;;;;;;0.19;100.00;97949.03;5022999;28;20490;-72
2023/01/25 03:01:44;;;;;;;;;;;;;;;0.24;100.00;97949.06;5045217;28;20011;-73
2023/01/25 03:04:09;;;;;;;;;;;;;;;0.23;100.00;97949.31;5041231;28;20301;-72
2023/01/25 03:06:35;;;;;;;;;;;;;;;0.22;100.00;97942.28;5045423;28;19924;-74
2023/01/25 03:09:01;;;;;;;;;;;;;;;0.27;100.00;97945.00;5046383;28;20463;-72
2023/01/25 03:11:27;;;;;;;;;;;;;;;0.40;100.00;97935.56;5042354;28;19924;-72
2023/01/25 03:13:52;;;;;;;;;;;;;;;0.46;100.00;97940.69;5061441;28;20310;-73
2023/01/25 03:16:17;;;;;;;;;;;;;;;0.56;100.00;97934.50;5074931;28;19925;-72
2023/01/25 03:18:43;;;;;;;;;;;;;;;0.50;100.00;97932.88;5073410;28;19924;-72
2023/01/25 03:21:08;;;;;;;;;;;;;;;0.20;100.00;97937.19;5041966;28;20393;-72
2023/01/25 03:23:34;;;;;;;;;;;;;;;0.17;100.00;97935.03;5045507;28;20397;-72
2023/01/25 03:26:08;;;;;;;;;;;;;;;0.11;100.00;97936.91;5046421;28;20024;-72
2023/01/25 03:28:34;;;;;;;;;;;;;;;0.03;100.00;97932.06;5044699;28;20016;-72
2023/01/25 03:30:59;;;;;;;;;;;;;;;0.04;100.00;97928.28;5045727;28;20362;-72
2023/01/25 03:33:24;;;;;;;;;;;;;;;-0.02;100.00;97932.88;5038944;28;19943;-72
2023/01/25 03:35:53;;;;;;;;;;;;;;;-0.05;100.00;97937.97;5045953;28;19916;-71
2023/01/25 03:38:19;;;;;;;;;;;;;;;0.03;100.00;97929.34;5042035;28;19917;-73
2023/01/25 03:40:45;;;;;;;;;;;;;;;-0.03;100.00;97925.84;5059643;28;19921;-71
2023/01/25 03:43:10;;;;;;;;;;;;;;;-0.07;100.00;97916.69;5056083;28;19975;-72
2023/01/25 03:45:35;;;;;;;;;;;;;;;-0.04;100.00;97918.03;5043338;28;20352;-72
2023/01/25 03:48:01;;;;;;;;;;;;;;;-0.08;100.00;97912.38;5027428;28;19916;-72
2023/01/25 03:50:26;;;;;;;;;;;;;;;0.06;100.00;97909.97;5039654;28;19924;-72
2023/01/25 03:52:58;;;;;;;;;;;;;;;0.10;100.00;97904.84;5045485;28;19916;-72
2023/01/25 03:55:23;;;;;;;;;;;;;;;0.04;100.00;97914.00;5039739;28;19946;-72
2023/01/25 03:57:48;;;;;;;;;;;;;;;-0.02;100.00;97910.50;5044346;28;19916;-72
2023/01/25 04:00:14;;;;;;;;;;;;;;;0.01;100.00;97912.66;5039319;28;19916;-71
2023/01/25 04:02:39;;;;;;;;;;;;;;;0.02;100.00;97905.38;5043763;28;19956;-71
2023/01/25 04:05:05;;;;;;;;;;;;;;;0.12;100.00;97919.66;5054659;28;19924;-72
2023/01/25 04:07:32;;;;;;;;;;;;;;;0.19;100.00;97914.81;5043982;28;20378;-71
2023/01/25 04:09:58;;;;;;;;;;;;;;;0.21;100.00;97922.63;5044601;28;19923;-72
2023/01/25 04:12:24;;;;;;;;;;;;;;;0.05;100.00;97915.63;5020467;28;19964;-72
2023/01/25 04:14:50;;;;;;;;;;;;;;;-0.04;100.00;97920.72;5043640;28;20404;-72
2023/01/25 04:17:15;;;;;;;;;;;;;;;-0.10;100.00;97909.16;5021297;28;20008;-72
2023/01/25 04:19:41;;;;;;;;;;;;;;;-0.12;100.00;97905.13;5057171;28;19920;-71
2023/01/25 04:22:07;;;;;;;;;;;;;;;-0.08;100.00;97907.00;5021902;28;19916;-72
2023/01/25 04:24:33;;;;;;;;;;;;;;;0.04;100.00;97895.13;5059196;28;19929;-72
2023/01/25 04:26:59;;;;;;;;;;;;;;;-0.10;100.00;97909.16;5044367;28;19940;-71
2023/01/25 04:29:24;;;;;;;;;;;;;;;-0.04;100.00;97908.09;5039140;28;19916;-72
2023/01/25 04:31:49;;;;;;;;;;;;;;;0.37;100.00;97902.69;5059841;28;20285;-72
2023/01/25 04:34:15;;;;;;;;;;;;;;;0.44;100.00;97902.41;5048738;28;19916;-72
2023/01/25 04:36:40;;;;;;;;;;;;;;;0.50;100.00;97895.13;5058956;28;19939;-72
2023/01/25 04:39:05;;;;;;;;;;;;;;;0.23;100.00;97898.13;5064936;28;19928;-72
2023/01/25 04:41:31;;;;;;;;;;;;;;;0.26;100.00;97893.00;5050017;28;19917;-72
2023/01/25 04:43:56;;;;;;;;;;;;;;;0.27;100.00;97889.25;5044630;28;19928;-72
2023/01/25 04:46:21;;;;;;;;;;;;;;;0.24;100.00;97889.75;5053706;28;19951;-72
2023/01/25 04:48:46;;;;;;;;;;;;;;;0.35;100.00;97894.06;5044123;28;19933;-73
2023/01/25 04:51:13;;;;;;;;;;;;;;;0.40;100.00;97889.75;5040896;28;19921;-73
2023/01/25 04:53:38;;;;;;;;;;;;;;;0.20;100.00;97886.00;5043734;28;20007;-72
2023/01/25 04:56:03;;;;;;;;;;;;;;;0.18;100.00;97882.75;5042248;28;20342;-70
2023/01/25 04:58:29;;;;;;;;;;;;;;;0.46;100.00;97894.06;5024828;28;19923;-72
2023/01/25 05:00:58;;;;;;;;;;;;;;;0.48;100.00;97890.00;5042334;28;20015;-72
2023/01/25 05:03:23;;;;;;;;;;;;;;;0.25;100.00;97895.97;5020909;28;20813;-73
2023/01/25 05:05:49;;;;;;;;;;;;;;;0.27;100.00;97886.53;5043112;28;19939;-74
2023/01/25 05:08:14;;;;;;;;;;;;;;;0.36;100.00;97892.16;5037826;28;19939;-74
2023/01/25 05:10:39;;;;;;;;;;;;;;;0.23;100.00;97892.72;5026116;28;19970;-74
2023/01/25 05:13:04;;;;;;;;;;;;;;;0.09;100.00;97885.19;5027907;28;19917;-70
2023/01/25 05:15:30;;;;;;;;;;;;;;;0.04;100.00;97895.97;5030936;28;19927;-74
2023/01/25 05:17:56;;;;;;;;;;;;;;;0.04;100.00;97885.19;5046894;28;19929;-74
2023/01/25 05:20:21;;;;;;;;;;;;;;;0.11;100.00;97884.91;5053544;28;20142;-75
2023/01/25 05:22:46;;;;;;;;;;;;;;;0.19;100.00;97887.88;5059109;28;20414;-74
2023/01/25 05:26:59;;;;;;;;;;;;;;;0.24;100.00;97879.00;5038799;28;19921;-74
2023/01/25 05:27:57;;;;;;;;;;;;;;;0.21;100.00;97873.34;5042578;28;20062;-73
2023/01/25 05:30:22;;;;;;;;;;;;;;;0.22;100.00;97880.31;5037963;28;20996;-73
2023/01/25 05:32:48;;;;;;;;;;;;;;;0.25;100.00;97874.41;5042641;28;19917;-73
2023/01/25 05:35:14;;;;;;;;;;;;;;;0.25;100.00;97880.59;5038482;28;20297;-74
2023/01/25 05:37:39;;;;;;;;;;;;;;;0.20;100.00;97883.31;5042341;28;19931;-73
2023/01/25 05:40:05;;;;;;;;;;;;;;;0.09;100.00;97879.81;5038401;28;19931;-73
2023/01/25 05:42:31;;;;;;;;;;;;;;;0.01;100.00;97874.94;5057466;28;20469;-71
2023/01/25 05:44:56;;;;;;;;;;;;;;;0.19;100.00;97876.28;5042719;28;19931;-72
2023/01/25 05:47:21;;;;;;;;;;;;;;;0.27;100.00;97864.97;5038771;28;20650;-72
2023/01/25 05:49:47;;;;;;;;;;;;;;;0.58;100.00;97867.63;5043240;28;19963;-71
2023/01/25 05:52:13;;;;;;;;;;;;;;;0.72;100.00;97860.59;5038669;28;19929;-74
2023/01/25 05:54:38;;;;;;;;;;;;;;;0.54;100.00;97861.97;5058064;28;19916;-74
2023/01/25 05:57:04;;;;;;;;;;;;;;;0.29;100.00;97862.81;5037225;28;19923;-71
2023/01/25 05:59:29;;;;;;;;;;;;;;;0.10;100.00;97864.44;5043329;28;19921;-73
2023/01/25 06:01:55;;;;;;;;;;;;;;;0.09;100.00;97862.81;5041372;28;19931;-73
2023/01/25 06:04:20;;;;;;;;;;;;;;;0.05;100.00;97864.44;5037700;28;20397;-70
2023/01/25 06:06:45;;;;;;;;;;;;;;;0.03;100.00;97867.41;5040968;28;19961;-70
2023/01/25 06:09:11;;;;;;;;;;;;;;;0.02;100.00;97864.97;5036474;28;19917;-70
2023/01/25 06:11:36;;;;;;;;;;;;;;;0.04;100.00;97865.50;5042437;28;20282;-71
2023/01/25 06:14:02;;;;;;;;;;;;;;;0.03;100.00;97864.72;5040200;28;19924;-70
2023/01/25 06:16:27;;;;;;;;;;;;;;;0.02;100.00;97863.09;5038608;28;19923;-70
2023/01/25 06:18:53;;;;;;;;;;;;;;;0.06;100.00;97861.47;5042086;28;20095;-70
2023/01/25 06:21:18;;;;;;;;;;;;;;;0.07;100.00;97863.09;5037951;28;19917;-70
2023/01/25 06:23:43;;;;;;;;;;;;;;;0.04;100.00;97860.13;5050104;28;19916;-71
2023/01/25 06:26:12;;;;;;;;;;;;;;;0.09;100.00;97852.88;5044849;28;20271;-68
2023/01/25 06:28:38;;;;;;;;;;;;;;;0.12;100.00;97864.97;5042349;28;20013;-70
2023/01/25 06:31:04;;;;;;;;;;;;;;;0.10;100.00;97867.13;5038478;28;20004;-67
2023/01/25 06:33:30;;;;;;;;;;;;;;;0.08;100.00;97859.31;5043044;28;20284;-70
2023/01/25 06:36:00;;;;;;;;;;;;;;;0.06;100.00;97860.69;5054506;28;19979;-71
2023/01/25 06:38:25;;;;;;;;;;;;;;;0.05;100.00;97859.84;5067974;28;20285;-71
2023/01/25 06:40:50;;;;;;;;;;;;;;;0.06;100.00;97858.78;5050823;28;19920;-70
2023/01/25 06:43:16;;;;;;;;;;;;;;;0.08;100.00;97866.59;5038001;28;19921;-70
2023/01/25 06:45:41;;;;;;;;;;;;;;;0.04;100.00;97863.63;5041835;28;19921;-71
2023/01/25 06:48:06;;;;;;;;;;;;;;;0.06;100.00;97863.38;5052834;28;19917;-70
2023/01/25 06:50:31;;;;;;;;;;;;;;;0.05;100.00;97870.63;5040049;28;20020;-71
2023/01/25 06:52:57;;;;;;;;;;;;;;;0.05;100.00;97859.84;5058123;28;20015;-71
2023/01/25 06:55:22;;;;;;;;;;;;;;;0.05;100.00;97861.75;5037691;28;20202;-70
2023/01/25 06:57:48;;;;;;;;;;;;;;;0.06;100.00;97864.19;5057522;28;20328;-70
2023/01/25 07:00:14;;;;;;;;;;;;;;;0.05;100.00;97859.06;5057394;28;19916;-71
2023/01/25 07:02:39;;;;;;;;;;;;;;;0.05;100.00;97859.06;5061905;28;19917;-71
2023/01/25 07:05:05;;;;;;;;;;;;;;;0.05;100.00;97857.16;5050579;28;20264;-71
2023/01/25 07:07:30;;;;;;;;;;;;;;;0.04;100.00;97855.56;5050884;28;19917;-71
2023/01/25 07:09:55;;;;;;;;;;;;;;;0.04;100.00;97854.72;5043952;28;19971;-70
2023/01/25 07:12:21;;;;;;;;;;;;;;;0.04;100.00;97850.19;5036645;28;20021;-71
2023/01/25 07:14:48;;;;;;;;;;;;;;;0.02;100.00;97843.41;5042289;28;19920;-71
2023/01/25 07:17:13;;;;;;;;;;;;;;;0.06;100.00;97844.53;5037137;28;19917;-70
2023/01/25 07:19:38;;;;;;;;;;;;;;;0.02;100.00;97846.94;5022987;28;19921;-71
2023/01/25 07:22:04;;;;;;;;;;;;;;;0.00;100.00;97841.03;5034875;28;20287;-70
2023/01/25 07:24:29;;;;;;;;;;;;;;;0.04;100.00;97841.25;5040448;28;19932;-69
2023/01/25 07:26:54;;;;;;;;;;;;;;;-0.02;100.00;97841.28;5023061;28;19931;-69
2023/01/25 07:29:20;;;;;;;;;;;;;;;-0.02;100.00;97832.38;5036060;28;19927;-71
2023/01/25 07:31:45;;;;;;;;;;;;;;;-0.03;100.00;97844.25;5041395;28;19924;-70
2023/01/25 07:34:12;;;;;;;;;;;;;;;-0.03;100.00;97847.75;5035857;28;19924;-71
2023/01/25 07:36:38;;;;;;;;;;;;;;;-0.05;100.00;97844.50;5023908;28;20297;-71
2023/01/25 07:39:04;;;;;;;;;;;;;;;-0.02;100.00;97840.47;5036707;28;19935;-70
2023/01/25 07:41:29;;;;;;;;;;;;;;;-0.02;100.00;97838.59;5027322;28;19929;-71
2023/01/25 07:43:54;;;;;;;;;;;;;;;-0.04;100.00;97846.16;5060253;28;19917;-71
2023/01/25 07:46:19;;;;;;;;;;;;;;;-0.05;100.00;97838.31;5039513;28;19971;-70
2023/01/25 07:48:49;;;;;;;;;;;;;;;-0.04;100.00;97845.31;5057049;28;19929;-71
2023/01/25 07:51:26;;;;;;;;;;;;;;;-0.02;100.00;97851.22;5042636;28;20004;-71
2023/01/25 07:53:54;;;;;;;;;;;;;;;0.01;100.00;97842.63;5027445;28;20008;-70
2023/01/25 07:56:28;;;;;;;;;;;;;;;-0.05;100.00;97843.72;5039480;28;19917;-69
2023/01/25 07:58:54;;;;;;;;;;;;;;;0.16;100.00;97847.19;5044673;28;19916;-71
2023/01/25 08:01:20;;;;;;;;;;;;;;;0.34;100.00;97854.72;5039602;28;19917;-71
2023/01/25 08:03:46;;;;;;;;;;;;;;;0.04;100.00;97841.25;5045763;28;20008;-71
2023/01/25 08:06:11;;;;;;;;;;;;;;;-0.05;100.00;97849.91;5039498;28;20006;-71
2023/01/25 08:08:41;;;;;;;;;;;;;;;-0.10;100.00;97843.72;5026041;28;19927;-71
2023/01/25 08:11:08;;;;;;;;;;;;;;;-0.20;100.00;97848.03;5039739;28;19920;-70
2023/01/25 08:13:33;;;;;;;;;;;;;;;-0.16;100.00;97839.38;5043906;28;19943;-71
2023/01/25 08:15:58;;;;;;;;;;;;;;;-0.14;100.00;97837.25;5044020;28;20371;-71
2023/01/25 08:18:24;;;;;;;;;;;;;;;-0.06;100.00;97831.31;5040477;28;19978;-70
2023/01/25 08:20:50;;;;;;;;;;;;;;;-0.11;100.00;97828.63;5043148;28;19917;-69
2023/01/25 08:23:15;;;;;;;;;;;;;;;0.08;100.00;97827.00;5039460;28;20334;-70
2023/01/25 08:25:40;;;;;;;;;;;;;;;0.19;100.00;97823.19;5044028;28;19927;-71
2023/01/25 08:28:06;;;;;;;;;;;;;;;0.35;100.00;97817.81;5039132;28;19921;-70
2023/01/25 08:30:32;;;;;;;;;;;;;;;0.14;100.00;97820.50;5044059;28;20380;-71
2023/01/25 08:32:57;;;;;;;;;;;;;;;0.20;100.00;97815.94;5043790;28;19920;-71
2023/01/25 08:35:23;;;;;;;;;;;;;;;0.23;100.00;97811.88;5038300;28;19951;-71
2023/01/25 08:37:48;;;;;;;;;;;;;;;-0.03;100.00;97818.13;5044419;28;20739;-71
2023/01/25 08:40:13;;;;;;;;;;;;;;;0.13;100.00;97810.84;5037666;28;20007;-71
2023/01/25 08:42:39;;;;;;;;;;;;;;;0.19;100.00;97809.72;5043883;28;20050;-70
2023/01/25 08:45:04;;;;;;;;;;;;;;;0.32;100.00;97805.66;5038951;28;19931;-68
2023/01/25 08:47:30;;;;;;;;;;;;;;;0.05;100.00;97805.19;5042970;28;19935;-71
2023/01/25 08:49:55;;;;;;;;;;;;;;;-0.01;100.00;97815.16;5043640;28;19956;-71
2023/01/25 08:52:20;;;;;;;;;;;;;;;-0.04;100.00;97807.59;5038571;28;19939;-71
2023/01/25 08:54:46;;;;;;;;;;;;;;;-0.02;100.00;97808.13;5042115;28;19925;-71
2023/01/25 08:57:11;;;;;;;;;;;;;;;0.37;100.00;97800.28;5038390;28;19916;-71
2023/01/25 08:59:37;;;;;;;;;;;;;;;0.23;100.00;97801.91;5041941;28;20011;-72
2023/01/25 09:02:02;;;;;;;;;;;;;;;0.17;100.00;97800.31;5042597;28;20004;-71
2023/01/25 09:04:27;;;;;;;;;;;;;;;0.03;100.00;97786.59;5022281;28;19972;-71
2023/01/25 09:06:54;;;;;;;;;;;;;;;0.09;100.00;97787.38;5042346;28;20364;-71
2023/01/25 09:09:21;;;;;;;;;;;;;;;0.35;100.00;97774.69;5038674;28;19928;-70
2023/01/25 09:11:47;;;;;;;;;;;;;;;0.22;100.00;97778.75;5042302;28;19931;-70
2023/01/25 09:14:12;;;;;;;;;;;;;;;0.27;100.00;97775.22;5038284;28;19921;-71
2023/01/25 09:16:37;;;;;;;;;;;;;;;0.69;100.00;97774.03;5043826;28;19917;-71
2023/01/25 09:19:04;;;;;;;;;;;;;;;0.64;100.00;97765.97;5022584;28;20370;-70
2023/01/25 09:21:29;;;;;;;;;;;;;;;0.68;100.00;97769.72;5058074;28;19916;-71
2023/01/25 09:23:55;;;;;;;;;;;;;;;0.40;100.00;97765.75;5042521;28;20003;-71
2023/01/25 09:26:20;;;;;;;;;;;;;;;0.38;100.00;97766.84;5039513;28;19920;-70
2023/01/25 09:28:47;;;;;;;;;;;;;;;0.47;100.00;97768.97;5046270;28;19920;-71
2023/01/25 09:31:12;;;;;;;;;;;;;;;0.40;100.00;97771.16;5049168;28;19928;-70
2023/01/25 09:33:38;;;;;;;;;;;;;;;0.29;100.00;97768.50;5055476;28;19917;-70
2023/01/25 09:36:05;;;;;;;;;;;;;;;0.17;100.00;97768.00;5051014;28;19917;-69
2023/01/25 09:38:30;;;;;;;;;;;;;;;0.08;100.00;97767.72;5051952;28;19921;-71
2023/01/25 09:40:58;;;;;;;;;;;;;;;0.15;100.00;97764.75;5046499;28;19942;-71
2023/01/25 09:43:36;;;;;;;;;;;;;;;0.08;100.00;97769.63;5041239;28;20334;-71
2023/01/25 09:46:07;;;;;;;;;;;;;;;0.06;100.00;97771.78;5049756;28;20497;-71
2023/01/25 09:48:41;;;;;;;;;;;;;;;0.06;100.00;97775.28;5051797;28;19921;-70
2023/01/25 09:51:14;;;;;;;;;;;;;;;0.04;100.00;97772.06;5045429;28;19920;-70
2023/01/25 09:53:42;;;;;;;;;;;;;;;0.11;100.00;97769.06;5050124;28;19917;-70
2023/01/25 09:56:28;;;;;;;;;;;;;;;0.04;100.00;97765.84;5041639;28;19939;-72
2023/01/25 09:58:59;;;;;;;;;;;;;;;-0.01;100.00;97767.47;5030633;28;19920;-70
2023/01/25 10:01:26;;;;;;;;;;;;;;;0.10;100.00;97765.56;5045635;28;19921;-71
2023/01/25 10:04:00;;;;;;;;;;;;;;;0.27;100.00;97761.75;5054014;28;19916;-71
2023/01/25 10:06:36;;;;;;;;;;;;;;;0.48;100.00;97759.81;5019626;28;20417;-70
2023/01/25 10:09:07;;;;;;;;;;;;;;;0.62;100.00;97758.16;5042992;28;19917;-70
2023/01/25 10:11:33;;;;;;;;;;;;;;;0.70;100.00;97756.75;5044147;28;19923;-70
2023/01/25 10:13:58;;;;;;;;;;;;;;;0.25;100.00;97756.63;5042776;28;19920;-71
2023/01/25 10:16:24;;;;;;;;;;;;;;;0.12;100.00;97758.00;5018871;28;19928;-70
2023/01/25 10:18:55;;;;;;;;;;;;;;;0.17;100.00;97758.00;5041630;28;19921;-70
2023/01/25 10:21:27;;;;;;;;;;;;;;;0.10;100.00;97754.00;5053457;28;20298;-72
2023/01/25 10:24:11;;;;;;;;;;;;;;;0.17;100.00;97755.31;5043071;28;19916;-69
2023/01/25 10:26:38;;;;;;;;;;;;;;;0.28;100.00;97755.31;5023954;28;19921;-70
2023/01/25 10:29:21;;;;;;;;;;;;;;;0.58;100.00;97765.19;5037646;28;19924;-69
2023/01/25 10:31:52;;;;;;;;;;;;;;;0.46;100.00;97759.28;5050510;28;20007;-70
2023/01/25 10:34:17;;;;;;;;;;;;;;;0.46;100.00;97762.78;5036399;28;20581;-71
2023/01/25 10:36:45;;;;;;;;;;;;;;;0.48;100.00;97757.13;5041116;28;19917;-71
2023/01/25 10:39:10;;;;;;;;;;;;;;;0.46;100.00;97757.38;5037437;28;20408;-71
2023/01/25 10:41:41;;;;;;;;;;;;;;;0.25;100.00;97758.53;5040928;28;19921;-68
2023/01/25 10:44:26;;;;;;;;;;;;;;;0.32;100.00;97748.28;5019172;28;19921;-71
2023/01/25 10:47:11;;;;;;;;;;;;;;;0.44;100.00;97748.78;5057548;28;19924;-70
2023/01/25 10:49:57;;;;;;;;;;;;;;;0.42;100.00;97744.75;5023510;28;20283;-71
2023/01/25 10:52:25;;;;;;;;;;;;;;;0.49;100.00;97742.56;5019291;28;20523;-71
2023/01/25 10:55:11;;;;;;;;;;;;;;;0.49;100.00;97740.69;5058158;28;19924;-69
2023/01/25 10:57:37;;;;;;;;;;;;;;;0.36;100.00;97731.28;5023336;28;19975;-70
2023/01/25 11:00:09;;;;;;;;;;;;;;;0.26;100.00;97736.72;5020774;28;19917;-69
2023/01/25 11:02:34;;;;;;;;;;;;;;;0.22;100.00;97724.03;5022486;28;20355;-70
2023/01/25 11:05:18;;;;;;;;;;;;;;;0.38;100.00;97725.63;5057250;28;19928;-72
2023/01/25 11:07:44;;;;;;;;;;;;;;;0.78;100.00;97725.72;5041728;28;19917;-70
2023/01/25 11:10:25;;;;;;;;;;;;;;;0.90;100.00;97726.19;5037892;28;19966;-72
2023/01/25 11:13:10;;;;;;;;;;;;;;;0.61;100.00;97724.16;5041663;28;19924;-69
2023/01/25 11:15:36;;;;;;;;;;;;;;;0.67;100.00;97714.19;5042416;28;19917;-71
2023/01/25 11:18:05;;;;;;;;;;;;;;;0.64;100.00;97715.53;5046773;28;19963;-71
2023/01/25 11:20:30;;;;;;;;;;;;;;;0.70;100.00;97705.53;5055638;28;19920;-69
2023/01/25 11:22:56;;;;;;;;;;;;;;;0.47;100.00;97707.81;5066125;28;19932;-71
2023/01/25 11:25:25;;;;;;;;;;;;;;;0.75;100.00;97700.91;5059672;28;19929;-71
2023/01/25 11:27:50;;;;;;;;;;;;;;;0.53;100.00;97703.19;5064489;28;19917;-70
2023/01/25 11:30:19;;;;;;;;;;;;;;;0.66;100.00;97701.78;5045426;28;19971;-71
2023/01/25 11:32:44;;;;;;;;;;;;;;;0.48;100.00;97692.44;5045981;28;19917;-70
2023/01/25 11:35:20;;;;;;;;;;;;;;;0.38;100.00;97687.91;5055904;28;19917;-69
2023/01/25 11:37:53;;;;;;;;;;;;;;;0.41;100.00;97684.63;5021659;28;19924;-71
2023/01/25 11:40:22;;;;;;;;;;;;;;;0.23;100.00;97687.94;5022408;28;20391;-71
2023/01/25 11:42:50;;;;;;;;;;;;;;;0.33;100.00;97672.53;5037062;28;20374;-70
2023/01/25 11:45:31;;;;;;;;;;;;;;;0.26;100.00;97677.44;5021344;28;20347;-69
2023/01/25 11:48:15;;;;;;;;;;;;;;;0.10;100.00;97675.88;5024942;28;20011;-70
2023/01/25 11:50:47;;;;;;;;;;;;;;;-0.01;100.00;97672.41;5031819;28;19917;-70
2023/01/25 11:53:31;;;;;;;;;;;;;;;0.05;100.00;97668.59;5042622;28;20016;-71
2023/01/25 11:55:56;;;;;;;;;;;;;;;0.03;100.00;97660.00;5027308;28;20027;-70
2023/01/25 11:58:25;;;;;;;;;;;;;;;0.04;100.00;97652.72;5038992;28;20619;-72
2023/01/25 12:01:02;;;;;;;;;;;;;;;-0.03;100.00;97650.31;5028896;28;20011;-71
2023/01/25 12:03:46;;;;;;;;;;;;;;;0.08;100.00;97654.59;5061626;28;19921;-71
2023/01/25 12:06:30;;;;;;;;;;;;;;;0.15;100.00;97638.16;5033414;28;19921;-72
2023/01/25 12:09:17;;;;;;;;;;;;;;;0.19;100.00;97647.28;5036993;28;19921;-70
2023/01/25 12:11:54;;;;;;;;;;;;;;;0.10;100.00;97635.47;5024361;28;19986;-70
2023/01/25 12:14:46;;;;;;;;;;;;;;;0.01;100.00;97629.84;5021171;28;19923;-71
2023/01/25 12:17:11;;;;;;;;;;;;;;;-0.03;100.00;97623.41;4995887;28;19928;-71
2023/01/25 12:19:49;;;;;;;;;;;;;;;0.04;100.00;97620.38;5037343;28;19916;-71
2023/01/25 12:22:21;;;;;;;;;;;;;;;-0.04;100.00;97609.13;5040291;28;19927;-71
2023/01/25 12:24:46;;;;;;;;;;;;;;;0.05;100.00;97608.53;5043669;28;19932;-71
2023/01/25 12:27:23;;;;;;;;;;;;;;;0.31;100.00;97612.75;5038269;28;19990;-70
2023/01/25 12:29:54;;;;;;;;;;;;;;;0.03;100.00;97599.94;5025642;28;19953;-69
2023/01/25 12:32:42;;;;;;;;;;;;;;;-0.03;100.00;97594.56;5003854;28;20123;-68
2023/01/25 12:35:10;;;;;;;;;;;;;;;0.03;100.00;97599.94;5023905;28;20353;-70
2023/01/25 12:37:38;;;;;;;;;;;;;;;0.04;100.00;97594.28;5023252;28;19976;-71
2023/01/25 12:40:10;;;;;;;;;;;;;;;0.10;100.00;97589.66;5017725;28;19964;-68
2023/01/25 12:42:52;;;;;;;;;;;;;;;0.18;100.00;97589.06;5022063;28;20305;-70
2023/01/25 12:45:18;;;;;;;;;;;;;;;0.06;100.00;97580.53;5019051;28;19931;-70
2023/01/25 12:47:47;;;;;;;;;;;;;;;0.10;100.00;97584.28;5022552;28;20015;-71